< < Back
Terminal Aerodrome Forecast


Current Version              Previous Versions:   1  2  3  4  5  6  7  8  9  

Terminal Aerodrome Forecast

384
FTUS42 KILM 300500
TAFFLO
TAF
KFLO 300520Z 3006/3106 03002KT P6SM SKC
     FM301300 06003KT P6SM SCT060
     FM302000 09006KT P6SM SCT060 BKN100=



Latest METAR

740
SAUS70 KWBC 301700 RRC
MTRFLO
METAR KFLO 301653Z 11006KT 10SM FEW037 SCT085 BKN100 30/20 A3003 RMK AO2
SLP167 T03000200


USA.gov is the U.S. government's official web portal to all federal, state and local government web resources and services.